sensor_id;sensor_type;location;lat;lon;timestamp;temperature;humidity
16477;DHT22;8349;50.928;6.376;2023-04-24T06:59:40;7.90;99.90
16477;DHT22;8349;50.928;6.376;2023-04-24T07:09:30;7.50;99.90
16477;DHT22;8349;50.928;6.376;2023-04-24T07:16:52;7.20;99.90
16477;DHT22;8349;50.928;6.376;2023-04-24T10:35:45;8.90;99.90
16477;DHT22;8349;50.928;6.376;2023-04-24T10:38:15;9.10;99.90
16477;DHT22;8349;50.928;6.376;2023-04-24T10:40:43;9.10;99.90
16477;DHT22;8349;50.928;6.376;2023-04-24T10:43:10;9.20;99.90
16477;DHT22;8349;50.928;6.376;2023-04-24T10:45:37;9.00;99.90
16477;DHT22;8349;50.928;6.376;2023-04-24T10:48:04;9.00;99.90
16477;DHT22;8349;50.928;6.376;2023-04-24T10:50:42;8.80;99.90
16477;DHT22;8349;50.928;6.376;2023-04-24T10:53:15;8.70;99.90
16477;DHT22;8349;50.928;6.376;2023-04-24T10:55:43;8.70;99.90
16477;DHT22;8349;50.928;6.376;2023-04-24T10:58:10;8.70;99.90
16477;DHT22;8349;50.928;6.376;2023-04-24T11:00:38;8.70;99.90
16477;DHT22;8349;50.928;6.376;2023-04-24T11:03:05;8.60;99.90
16477;DHT22;8349;50.928;6.376;2023-04-24T11:05:51;8.60;99.90
16477;DHT22;8349;50.928;6.376;2023-04-24T11:08:27;8.90;99.90
16477;DHT22;8349;50.928;6.376;2023-04-24T11:10:55;9.40;99.90
16477;DHT22;8349;50.928;6.376;2023-04-24T11:13:22;9.90;99.90
16477;DHT22;8349;50.928;6.376;2023-04-24T11:18:36;10.50;99.90
16477;DHT22;8349;50.928;6.376;2023-04-24T11:21:09;10.90;99.90
16477;DHT22;8349;50.928;6.376;2023-04-24T11:23:37;11.30;99.90
16477;DHT22;8349;50.928;6.376;2023-04-24T11:26:11;11.30;99.90
16477;DHT22;8349;50.928;6.376;2023-04-24T11:28:43;11.10;99.90
16477;DHT22;8349;50.928;6.376;2023-04-24T11:33:56;10.40;99.90
16477;DHT22;8349;50.928;6.376;2023-04-24T11:36:22;10.20;99.90
16477;DHT22;8349;50.928;6.376;2023-04-24T11:38:51;10.00;99.90
16477;DHT22;8349;50.928;6.376;2023-04-24T11:41:18;9.80;99.90
16477;DHT22;8349;50.928;6.376;2023-04-24T11:43:45;9.60;99.90
16477;DHT22;8349;50.928;6.376;2023-04-24T11:46:16;9.60;99.90
16477;DHT22;8349;50.928;6.376;2023-04-24T11:48:44;9.50;99.90
16477;DHT22;8349;50.928;6.376;2023-04-24T11:51:11;9.50;99.90
16477;DHT22;8349;50.928;6.376;2023-04-24T11:53:38;9.60;99.90
16477;DHT22;8349;50.928;6.376;2023-04-24T11:56:06;9.80;99.90
16477;DHT22;8349;50.928;6.376;2023-04-24T11:58:35;10.10;99.90
16477;DHT22;8349;50.928;6.376;2023-04-24T12:01:02;10.30;99.90
16477;DHT22;8349;50.928;6.376;2023-04-24T12:03:30;10.40;99.90
16477;DHT22;8349;50.928;6.376;2023-04-24T12:06:06;10.60;99.90
16477;DHT22;8349;50.928;6.376;2023-04-24T12:08:34;10.90;99.90
16477;DHT22;8349;50.928;6.376;2023-04-24T12:11:01;11.60;99.90
16477;DHT22;8349;50.928;6.376;2023-04-24T12:13:29;11.60;99.90
16477;DHT22;8349;50.928;6.376;2023-04-24T12:15:56;11.30;99.90
16477;DHT22;8349;50.928;6.376;2023-04-24T12:18:23;11.00;99.90
16477;DHT22;8349;50.928;6.376;2023-04-24T12:20:50;11.80;99.90
16477;DHT22;8349;50.928;6.376;2023-04-24T12:23:28;11.80;99.90
16477;DHT22;8349;50.928;6.376;2023-04-24T12:25:59;11.30;99.90
16477;DHT22;8349;50.928;6.376;2023-04-24T12:28:34;11.10;99.90
16477;DHT22;8349;50.928;6.376;2023-04-24T12:31:00;11.20;99.90
16477;DHT22;8349;50.928;6.376;2023-04-24T12:33:27;11.80;99.90
16477;DHT22;8349;50.928;6.376;2023-04-24T12:35:54;13.20;99.90
16477;DHT22;8349;50.928;6.376;2023-04-24T12:38:21;13.20;99.90
16477;DHT22;8349;50.928;6.376;2023-04-24T12:41:00;13.20;99.90
16477;DHT22;8349;50.928;6.376;2023-04-24T12:43:29;13.10;99.90
16477;DHT22;8349;50.928;6.376;2023-04-24T12:45:55;12.60;99.90
16477;DHT22;8349;50.928;6.376;2023-04-24T12:48:22;12.30;99.90
16477;DHT22;8349;50.928;6.376;2023-04-24T12:50:49;12.10;99.90
16477;DHT22;8349;50.928;6.376;2023-04-24T12:53:15;12.10;99.90
16477;DHT22;8349;50.928;6.376;2023-04-24T12:55:43;13.10;99.90
16477;DHT22;8349;50.928;6.376;2023-04-24T12:58:10;13.20;99.90
16477;DHT22;8349;50.928;6.376;2023-04-24T13:00:38;13.30;99.90
16477;DHT22;8349;50.928;6.376;2023-04-24T13:03:05;13.90;99.90
16477;DHT22;8349;50.928;6.376;2023-04-24T13:05:32;15.00;99.90
16477;DHT22;8349;50.928;6.376;2023-04-24T13:07:58;14.70;99.90
16477;DHT22;8349;50.928;6.376;2023-04-24T13:10:27;14.40;99.90
16477;DHT22;8349;50.928;6.376;2023-04-24T13:12:54;14.10;99.90
16477;DHT22;8349;50.928;6.376;2023-04-24T13:15:21;13.50;99.90
16477;DHT22;8349;50.928;6.376;2023-04-24T13:17:49;12.80;99.90
16477;DHT22;8349;50.928;6.376;2023-04-24T13:20:16;12.50;99.90
16477;DHT22;8349;50.928;6.376;2023-04-24T13:22:42;12.20;99.90
16477;DHT22;8349;50.928;6.376;2023-04-24T13:25:09;12.10;99.90
16477;DHT22;8349;50.928;6.376;2023-04-24T13:27:37;12.30;99.90
16477;DHT22;8349;50.928;6.376;2023-04-24T13:30:04;12.20;99.90
16477;DHT22;8349;50.928;6.376;2023-04-24T13:32:31;12.00;99.90
16477;DHT22;8349;50.928;6.376;2023-04-24T13:35:00;12.00;99.90
16477;DHT22;8349;50.928;6.376;2023-04-24T13:37:27;12.10;99.90
16477;DHT22;8349;50.928;6.376;2023-04-24T13:39:54;12.80;99.90
16477;DHT22;8349;50.928;6.376;2023-04-24T13:42:21;12.90;99.90
16477;DHT22;8349;50.928;6.376;2023-04-24T13:44:48;12.90;99.90
16477;DHT22;8349;50.928;6.376;2023-04-24T13:47:16;12.90;99.90
16477;DHT22;8349;50.928;6.376;2023-04-24T13:49:43;12.70;99.90
16477;DHT22;8349;50.928;6.376;2023-04-24T13:52:11;12.40;99.90
16477;DHT22;8349;50.928;6.376;2023-04-24T13:54:39;12.30;99.90
16477;DHT22;8349;50.928;6.376;2023-04-24T13:57:05;12.40;99.90
16477;DHT22;8349;50.928;6.376;2023-04-24T13:59:32;12.40;99.90
16477;DHT22;8349;50.928;6.376;2023-04-24T14:01:59;12.30;99.90
16477;DHT22;8349;50.928;6.376;2023-04-24T14:04:26;12.40;99.90
16477;DHT22;8349;50.928;6.376;2023-04-24T14:06:52;12.40;99.90
16477;DHT22;8349;50.928;6.376;2023-04-24T14:09:21;12.50;99.90
16477;DHT22;8349;50.928;6.376;2023-04-24T14:11:48;12.40;99.90
16477;DHT22;8349;50.928;6.376;2023-04-24T14:14:15;12.30;99.90
16477;DHT22;8349;50.928;6.376;2023-04-24T14:16:41;12.50;99.90
16477;DHT22;8349;50.928;6.376;2023-04-24T14:19:08;12.90;99.90
16477;DHT22;8349;50.928;6.376;2023-04-24T14:21:35;13.60;99.90
16477;DHT22;8349;50.928;6.376;2023-04-24T14:24:02;14.40;99.90
16477;DHT22;8349;50.928;6.376;2023-04-24T14:26:30;14.70;99.90
16477;DHT22;8349;50.928;6.376;2023-04-24T14:28:57;14.70;99.90
16477;DHT22;8349;50.928;6.376;2023-04-24T14:31:25;14.70;99.90
16477;DHT22;8349;50.928;6.376;2023-04-24T14:33:51;14.70;99.90
16477;DHT22;8349;50.928;6.376;2023-04-24T14:36:18;14.50;99.90
16477;DHT22;8349;50.928;6.376;2023-04-24T14:38:45;14.30;99.90
16477;DHT22;8349;50.928;6.376;2023-04-24T14:41:12;15.10;99.90
16477;DHT22;8349;50.928;6.376;2023-04-24T14:43:40;15.50;99.90
16477;DHT22;8349;50.928;6.376;2023-04-24T14:46:07;16.00;99.90
16477;DHT22;8349;50.928;6.376;2023-04-24T14:48:34;15.90;99.90
16477;DHT22;8349;50.928;6.376;2023-04-24T14:51:00;16.10;99.90
16477;DHT22;8349;50.928;6.376;2023-04-24T14:53:27;16.30;99.90
16477;DHT22;8349;50.928;6.376;2023-04-24T14:55:54;16.20;99.90
16477;DHT22;8349;50.928;6.376;2023-04-24T14:58:21;16.50;99.90
16477;DHT22;8349;50.928;6.376;2023-04-24T15:00:49;17.00;99.90
16477;DHT22;8349;50.928;6.376;2023-04-24T15:03:18;17.10;99.90
16477;DHT22;8349;50.928;6.376;2023-04-24T15:05:45;17.00;99.90
16477;DHT22;8349;50.928;6.376;2023-04-24T15:08:12;16.10;99.90
16477;DHT22;8349;50.928;6.376;2023-04-24T15:10:39;15.50;99.90
16477;DHT22;8349;50.928;6.376;2023-04-24T15:13:06;16.00;99.90
16477;DHT22;8349;50.928;6.376;2023-04-24T15:15:32;16.90;99.90
16477;DHT22;8349;50.928;6.376;2023-04-24T15:18:00;17.30;99.90
16477;DHT22;8349;50.928;6.376;2023-04-24T15:20:27;17.30;99.90
16477;DHT22;8349;50.928;6.376;2023-04-24T15:22:54;17.00;99.90
16477;DHT22;8349;50.928;6.376;2023-04-24T15:25:21;16.70;99.90
16477;DHT22;8349;50.928;6.376;2023-04-24T15:27:48;15.90;99.90
16477;DHT22;8349;50.928;6.376;2023-04-24T15:30:15;14.90;99.90
16477;DHT22;8349;50.928;6.376;2023-04-24T15:32:42;14.20;99.90
16477;DHT22;8349;50.928;6.376;2023-04-24T15:35:10;13.60;99.90
16477;DHT22;8349;50.928;6.376;2023-04-24T15:37:37;13.30;99.90
16477;DHT22;8349;50.928;6.376;2023-04-24T15:40:05;13.10;99.90
16477;DHT22;8349;50.928;6.376;2023-04-24T15:42:32;13.10;99.90
16477;DHT22;8349;50.928;6.376;2023-04-24T15:44:59;13.00;99.90
16477;DHT22;8349;50.928;6.376;2023-04-24T15:47:26;13.10;99.90
16477;DHT22;8349;50.928;6.376;2023-04-24T15:49:52;13.00;99.90
16477;DHT22;8349;50.928;6.376;2023-04-24T15:52:21;12.90;99.90
16477;DHT22;8349;50.928;6.376;2023-04-24T15:54:48;13.00;99.90
16477;DHT22;8349;50.928;6.376;2023-04-24T15:57:15;13.00;99.90
16477;DHT22;8349;50.928;6.376;2023-04-24T15:59:41;13.00;99.90
16477;DHT22;8349;50.928;6.376;2023-04-24T16:02:08;13.10;99.90
16477;DHT22;8349;50.928;6.376;2023-04-24T16:04:36;13.10;99.90
16477;DHT22;8349;50.928;6.376;2023-04-24T16:07:02;13.00;99.90
16477;DHT22;8349;50.928;6.376;2023-04-24T16:09:31;13.00;99.90
16477;DHT22;8349;50.928;6.376;2023-04-24T16:11:57;13.00;99.90
16477;DHT22;8349;50.928;6.376;2023-04-24T16:14:25;12.80;99.90
16477;DHT22;8349;50.928;6.376;2023-04-24T16:16:52;12.80;99.90
16477;DHT22;8349;50.928;6.376;2023-04-24T16:19:19;12.80;99.90
16477;DHT22;8349;50.928;6.376;2023-04-24T16:21:46;12.80;99.90
16477;DHT22;8349;50.928;6.376;2023-04-24T16:24:13;12.50;99.90
16477;DHT22;8349;50.928;6.376;2023-04-24T16:26:41;12.40;99.90
16477;DHT22;8349;50.928;6.376;2023-04-24T16:29:08;12.30;99.90
16477;DHT22;8349;50.928;6.376;2023-04-24T16:31:35;12.40;99.90
16477;DHT22;8349;50.928;6.376;2023-04-24T16:34:01;12.40;99.90
16477;DHT22;8349;50.928;6.376;2023-04-24T16:36:28;12.40;99.90
16477;DHT22;8349;50.928;6.376;2023-04-24T16:38:55;12.40;99.90
16477;DHT22;8349;50.928;6.376;2023-04-24T16:41:22;12.30;99.90
16477;DHT22;8349;50.928;6.376;2023-04-24T16:43:50;12.40;99.90
16477;DHT22;8349;50.928;6.376;2023-04-24T16:46:17;12.50;99.90
16477;DHT22;8349;50.928;6.376;2023-04-24T16:48:44;12.60;99.90
16477;DHT22;8349;50.928;6.376;2023-04-24T16:51:11;12.90;99.90
16477;DHT22;8349;50.928;6.376;2023-04-24T16:53:37;13.10;99.90
16477;DHT22;8349;50.928;6.376;2023-04-24T16:56:04;12.90;99.90
16477;DHT22;8349;50.928;6.376;2023-04-24T16:58:31;12.90;99.90
16477;DHT22;8349;50.928;6.376;2023-04-24T17:00:59;13.00;99.90
16477;DHT22;8349;50.928;6.376;2023-04-24T17:03:26;13.20;99.90
16477;DHT22;8349;50.928;6.376;2023-04-24T17:05:53;13.30;99.90
16477;DHT22;8349;50.928;6.376;2023-04-24T17:08:20;13.00;99.90
16477;DHT22;8349;50.928;6.376;2023-04-24T17:10:48;12.80;99.90
16477;DHT22;8349;50.928;6.376;2023-04-24T17:13:15;12.60;99.90
16477;DHT22;8349;50.928;6.376;2023-04-24T17:15:41;12.30;99.90
16477;DHT22;8349;50.928;6.376;2023-04-24T17:18:10;12.10;99.90
16477;DHT22;8349;50.928;6.376;2023-04-24T17:20:37;12.10;99.90
16477;DHT22;8349;50.928;6.376;2023-04-24T17:23:03;12.30;99.90
16477;DHT22;8349;50.928;6.376;2023-04-24T17:25:30;12.70;99.90
16477;DHT22;8349;50.928;6.376;2023-04-24T17:27:57;13.20;99.90
16477;DHT22;8349;50.928;6.376;2023-04-24T17:30:24;13.50;99.90
16477;DHT22;8349;50.928;6.376;2023-04-24T17:32:51;13.90;99.90
16477;DHT22;8349;50.928;6.376;2023-04-24T17:35:19;14.40;99.90
16477;DHT22;8349;50.928;6.376;2023-04-24T17:37:46;14.90;99.90
16477;DHT22;8349;50.928;6.376;2023-04-24T17:40:12;15.50;99.90
16477;DHT22;8349;50.928;6.376;2023-04-24T17:42:40;15.30;99.90
16477;DHT22;8349;50.928;6.376;2023-04-24T17:45:07;15.10;99.90
16477;DHT22;8349;50.928;6.376;2023-04-24T17:47:34;14.30;99.90
16477;DHT22;8349;50.928;6.376;2023-04-24T17:50:00;13.70;99.90
16477;DHT22;8349;50.928;6.376;2023-04-24T17:52:29;13.00;99.90
16477;DHT22;8349;50.928;6.376;2023-04-24T17:54:56;12.30;99.90
16477;DHT22;8349;50.928;6.376;2023-04-24T17:57:22;11.80;99.90
16477;DHT22;8349;50.928;6.376;2023-04-24T17:59:49;11.50;99.90
16477;DHT22;8349;50.928;6.376;2023-04-24T18:02:16;11.40;99.90
16477;DHT22;8349;50.928;6.376;2023-04-24T18:04:43;11.20;99.90
16477;DHT22;8349;50.928;6.376;2023-04-24T18:07:09;11.10;99.90
16477;DHT22;8349;50.928;6.376;2023-04-24T18:09:38;10.90;99.90
16477;DHT22;8349;50.928;6.376;2023-04-24T18:12:05;10.70;99.90
16477;DHT22;8349;50.928;6.376;2023-04-24T18:14:32;10.50;99.90
16477;DHT22;8349;50.928;6.376;2023-04-24T18:16:59;10.40;99.90
16477;DHT22;8349;50.928;6.376;2023-04-24T18:19:26;10.30;99.90
16477;DHT22;8349;50.928;6.376;2023-04-24T18:21:52;10.20;99.90
16477;DHT22;8349;50.928;6.376;2023-04-24T18:24:19;10.10;99.90
16477;DHT22;8349;50.928;6.376;2023-04-24T18:26:48;10.10;99.90
16477;DHT22;8349;50.928;6.376;2023-04-24T18:29:14;10.00;99.90
16477;DHT22;8349;50.928;6.376;2023-04-24T18:31:41;9.90;99.90
16477;DHT22;8349;50.928;6.376;2023-04-24T18:34:08;9.90;99.90
16477;DHT22;8349;50.928;6.376;2023-04-24T18:36:35;9.80;99.90
16477;DHT22;8349;50.928;6.376;2023-04-24T18:39:02;9.70;99.90
16477;DHT22;8349;50.928;6.376;2023-04-24T18:41:29;9.70;99.90
16477;DHT22;8349;50.928;6.376;2023-04-24T18:43:57;9.70;99.90
16477;DHT22;8349;50.928;6.376;2023-04-24T18:46:24;9.70;99.90
16477;DHT22;8349;50.928;6.376;2023-04-24T18:48:51;9.70;99.90
16477;DHT22;8349;50.928;6.376;2023-04-24T18:51:18;9.70;99.90
16477;DHT22;8349;50.928;6.376;2023-04-24T18:53:44;9.70;99.90
16477;DHT22;8349;50.928;6.376;2023-04-24T18:56:11;9.70;99.90
16477;DHT22;8349;50.928;6.376;2023-04-24T18:58:38;9.70;99.90
16477;DHT22;8349;50.928;6.376;2023-04-24T19:01:10;9.70;99.90
16477;DHT22;8349;50.928;6.376;2023-04-24T19:03:37;9.70;99.90
16477;DHT22;8349;50.928;6.376;2023-04-24T19:06:03;9.60;99.90
16477;DHT22;8349;50.928;6.376;2023-04-24T19:08:30;9.60;99.90
16477;DHT22;8349;50.928;6.376;2023-04-24T19:10:57;9.60;99.90
16477;DHT22;8349;50.928;6.376;2023-04-24T19:13:24;9.50;99.90
16477;DHT22;8349;50.928;6.376;2023-04-24T19:15:51;9.50;99.90
16477;DHT22;8349;50.928;6.376;2023-04-24T19:18:19;9.50;99.90
16477;DHT22;8349;50.928;6.376;2023-04-24T19:20:46;9.50;99.90
16477;DHT22;8349;50.928;6.376;2023-04-24T19:23:12;9.40;99.90
16477;DHT22;8349;50.928;6.376;2023-04-24T19:25:39;9.30;99.90
16477;DHT22;8349;50.928;6.376;2023-04-24T19:28:06;9.30;99.90
16477;DHT22;8349;50.928;6.376;2023-04-24T19:30:33;9.20;99.90
16477;DHT22;8349;50.928;6.376;2023-04-24T19:33:00;9.20;99.90
16477;DHT22;8349;50.928;6.376;2023-04-24T19:35:29;9.10;99.90
16477;DHT22;8349;50.928;6.376;2023-04-24T19:37:55;9.10;99.90
16477;DHT22;8349;50.928;6.376;2023-04-24T19:40:22;9.00;99.90
16477;DHT22;8349;50.928;6.376;2023-04-24T19:42:49;8.90;99.90
16477;DHT22;8349;50.928;6.376;2023-04-24T19:45:16;8.90;99.90
16477;DHT22;8349;50.928;6.376;2023-04-24T19:47:43;8.80;99.90
16477;DHT22;8349;50.928;6.376;2023-04-24T19:50:09;8.80;99.90
16477;DHT22;8349;50.928;6.376;2023-04-24T19:52:38;8.70;99.90
16477;DHT22;8349;50.928;6.376;2023-04-24T19:55:05;8.60;99.90
16477;DHT22;8349;50.928;6.376;2023-04-24T19:57:32;8.60;99.90
16477;DHT22;8349;50.928;6.376;2023-04-24T19:59:59;8.50;99.90
16477;DHT22;8349;50.928;6.376;2023-04-24T20:02:25;8.40;99.90
16477;DHT22;8349;50.928;6.376;2023-04-24T20:04:52;8.40;99.90
16477;DHT22;8349;50.928;6.376;2023-04-24T20:07:19;8.30;99.90
16477;DHT22;8349;50.928;6.376;2023-04-24T20:09:47;8.30;99.90
16477;DHT22;8349;50.928;6.376;2023-04-24T20:12:14;8.30;99.90
16477;DHT22;8349;50.928;6.376;2023-04-24T20:14:41;8.20;99.90
16477;DHT22;8349;50.928;6.376;2023-04-24T20:17:08;8.20;99.90
16477;DHT22;8349;50.928;6.376;2023-04-24T20:19:34;8.10;99.90
16477;DHT22;8349;50.928;6.376;2023-04-24T20:22:02;8.10;99.90
16477;DHT22;8349;50.928;6.376;2023-04-24T20:24:28;8.00;99.90
16477;DHT22;8349;50.928;6.376;2023-04-24T20:26:56;7.90;99.90
16477;DHT22;8349;50.928;6.376;2023-04-24T20:29:23;7.90;99.90
16477;DHT22;8349;50.928;6.376;2023-04-24T20:31:50;7.80;99.90
16477;DHT22;8349;50.928;6.376;2023-04-24T20:34:17;7.80;99.90
16477;DHT22;8349;50.928;6.376;2023-04-24T20:36:44;7.70;99.90
16477;DHT22;8349;50.928;6.376;2023-04-24T20:39:11;7.70;99.90
16477;DHT22;8349;50.928;6.376;2023-04-24T20:41:37;7.70;99.90
16477;DHT22;8349;50.928;6.376;2023-04-24T20:44:06;7.60;99.90
16477;DHT22;8349;50.928;6.376;2023-04-24T20:46:33;7.50;99.90
16477;DHT22;8349;50.928;6.376;2023-04-24T20:48:59;7.50;99.90
16477;DHT22;8349;50.928;6.376;2023-04-24T20:51:27;7.50;99.90
16477;DHT22;8349;50.928;6.376;2023-04-24T20:53:54;7.40;99.90
16477;DHT22;8349;50.928;6.376;2023-04-24T20:56:21;7.30;99.90
16477;DHT22;8349;50.928;6.376;2023-04-24T20:58:49;7.30;99.90
16477;DHT22;8349;50.928;6.376;2023-04-24T21:01:17;7.30;99.90
16477;DHT22;8349;50.928;6.376;2023-04-24T21:03:44;7.20;99.90
16477;DHT22;8349;50.928;6.376;2023-04-24T21:06:10;7.10;99.90
16477;DHT22;8349;50.928;6.376;2023-04-24T21:08:37;7.20;99.90
16477;DHT22;8349;50.928;6.376;2023-04-24T21:11:04;7.20;99.90
16477;DHT22;8349;50.928;6.376;2023-04-24T21:13:31;7.20;99.90
16477;DHT22;8349;50.928;6.376;2023-04-24T21:15:58;7.20;99.90
16477;DHT22;8349;50.928;6.376;2023-04-24T21:18:26;7.20;99.90
16477;DHT22;8349;50.928;6.376;2023-04-24T21:20:53;7.10;99.90
16477;DHT22;8349;50.928;6.376;2023-04-24T21:23:20;7.10;99.90
16477;DHT22;8349;50.928;6.376;2023-04-24T21:25:47;7.10;99.90
16477;DHT22;8349;50.928;6.376;2023-04-24T21:28:14;7.10;99.90
16477;DHT22;8349;50.928;6.376;2023-04-24T21:30:40;7.10;99.90
16477;DHT22;8349;50.928;6.376;2023-04-24T21:33:08;7.10;99.90
16477;DHT22;8349;50.928;6.376;2023-04-24T21:35:36;7.10;99.90
16477;DHT22;8349;50.928;6.376;2023-04-24T21:38:03;7.10;99.90
16477;DHT22;8349;50.928;6.376;2023-04-24T21:40:30;7.10;99.90
16477;DHT22;8349;50.928;6.376;2023-04-24T21:42:57;7.10;99.90
16477;DHT22;8349;50.928;6.376;2023-04-24T21:45:24;7.10;99.90
16477;DHT22;8349;50.928;6.376;2023-04-24T21:47:51;7.20;99.90
16477;DHT22;8349;50.928;6.376;2023-04-24T21:50:17;7.10;99.90
16477;DHT22;8349;50.928;6.376;2023-04-24T21:52:46;7.10;99.90
16477;DHT22;8349;50.928;6.376;2023-04-24T21:55:12;7.10;99.90
16477;DHT22;8349;50.928;6.376;2023-04-24T21:57:39;7.10;99.90
16477;DHT22;8349;50.928;6.376;2023-04-24T22:00:07;7.10;99.90
16477;DHT22;8349;50.928;6.376;2023-04-24T22:02:35;7.10;99.90
16477;DHT22;8349;50.928;6.376;2023-04-24T22:05:02;7.10;99.90
16477;DHT22;8349;50.928;6.376;2023-04-24T22:07:31;7.10;99.90
16477;DHT22;8349;50.928;6.376;2023-04-24T22:10:00;7.10;99.90
16477;DHT22;8349;50.928;6.376;2023-04-24T22:12:26;7.10;99.90
16477;DHT22;8349;50.928;6.376;2023-04-24T22:14:53;7.10;99.90
16477;DHT22;8349;50.928;6.376;2023-04-24T22:17:20;7.00;99.90
16477;DHT22;8349;50.928;6.376;2023-04-24T22:19:47;7.00;99.90
16477;DHT22;8349;50.928;6.376;2023-04-24T22:22:15;7.00;99.90
16477;DHT22;8349;50.928;6.376;2023-04-24T22:24:42;7.10;99.90
16477;DHT22;8349;50.928;6.376;2023-04-24T22:27:10;7.10;99.90
16477;DHT22;8349;50.928;6.376;2023-04-24T22:29:37;7.10;99.90
16477;DHT22;8349;50.928;6.376;2023-04-24T22:32:04;7.10;99.90
16477;DHT22;8349;50.928;6.376;2023-04-24T22:34:31;7.20;99.90
16477;DHT22;8349;50.928;6.376;2023-04-24T22:36:57;7.10;99.90
16477;DHT22;8349;50.928;6.376;2023-04-24T22:39:24;7.10;99.90
16477;DHT22;8349;50.928;6.376;2023-04-24T22:41:51;7.10;99.90
16477;DHT22;8349;50.928;6.376;2023-04-24T22:44:19;7.10;99.90
16477;DHT22;8349;50.928;6.376;2023-04-24T22:46:46;7.20;99.90
16477;DHT22;8349;50.928;6.376;2023-04-24T22:49:13;7.10;99.90
16477;DHT22;8349;50.928;6.376;2023-04-24T22:51:40;7.10;99.90
16477;DHT22;8349;50.928;6.376;2023-04-24T22:54:07;7.20;99.90
16477;DHT22;8349;50.928;6.376;2023-04-24T22:56:33;7.20;99.90
16477;DHT22;8349;50.928;6.376;2023-04-24T22:59:02;7.10;99.90
16477;DHT22;8349;50.928;6.376;2023-04-24T23:01:30;7.10;99.90
16477;DHT22;8349;50.928;6.376;2023-04-24T23:03:57;7.10;99.90
16477;DHT22;8349;50.928;6.376;2023-04-24T23:06:24;7.10;99.90
16477;DHT22;8349;50.928;6.376;2023-04-24T23:08:51;7.10;99.90
16477;DHT22;8349;50.928;6.376;2023-04-24T23:11:18;7.20;99.90
16477;DHT22;8349;50.928;6.376;2023-04-24T23:13:46;7.10;99.90
16477;DHT22;8349;50.928;6.376;2023-04-24T23:16:13;7.20;99.90
16477;DHT22;8349;50.928;6.376;2023-04-24T23:18:41;7.20;99.90
16477;DHT22;8349;50.928;6.376;2023-04-24T23:21:08;7.10;99.90
16477;DHT22;8349;50.928;6.376;2023-04-24T23:23:35;7.10;99.90
16477;DHT22;8349;50.928;6.376;2023-04-24T23:26:02;7.10;99.90
16477;DHT22;8349;50.928;6.376;2023-04-24T23:28:28;7.00;99.90
16477;DHT22;8349;50.928;6.376;2023-04-24T23:30:55;7.00;99.90
16477;DHT22;8349;50.928;6.376;2023-04-24T23:33:22;6.80;99.90
16477;DHT22;8349;50.928;6.376;2023-04-24T23:35:50;6.80;99.90
16477;DHT22;8349;50.928;6.376;2023-04-24T23:38:17;6.70;99.90
16477;DHT22;8349;50.928;6.376;2023-04-24T23:40:44;6.70;99.90
16477;DHT22;8349;50.928;6.376;2023-04-24T23:43:11;6.70;99.90
16477;DHT22;8349;50.928;6.376;2023-04-24T23:45:38;6.60;99.90
16477;DHT22;8349;50.928;6.376;2023-04-24T23:48:04;6.60;99.90
16477;DHT22;8349;50.928;6.376;2023-04-24T23:50:31;6.60;99.90
16477;DHT22;8349;50.928;6.376;2023-04-24T23:53:00;6.60;99.90
16477;DHT22;8349;50.928;6.376;2023-04-24T23:55:26;6.60;99.90
16477;DHT22;8349;50.928;6.376;2023-04-24T23:57:53;6.60;99.90
